Flight Track Log - Related Links

Times and Time Zones

All times are in EDT time to prevent confusion due to time zone crossing. See the AWI4079 flight status page for this flight to view local times or setup timezone preferences in your user account.

Time Position Orientation Groundspeed Altitude Reporting Facility
EDT Latitude Longitude Course Direction KTS MPH feet Rate Location/Type
Tue 12:57:17 PM 39.8667 -75.2833 270° West 170 196 1,000  Level Philadelphia TRACON
Tue 12:58:50 PM 39.8583 -75.3897 264° West 215 247 4,400 2,471 Climbing New York Center
Tue 12:59:50 PM 39.8633 -75.4767 274° West 237 273 7,300 2,700 Climbing New York Center
Tue 01:00:50 PM 39.8678 -75.5717 274° West 237 273 9,800 1,600 Climbing New York Center
Tue 01:01:00 PM 39.9001 -75.8422 270° West  Level FlightAware Approximate
Tue 01:01:50 PM 39.8725 -75.6611 274° West 261 300 10,500  Level New York Center
Tue 01:02:00 PM 39.9000 -75.9685 270° West  Level FlightAware Approximate
Tue 01:02:50 PM 39.8803 -75.7728 275° West 278 320 12,600  Level New York Center
Tue 01:03:50 PM 39.9092 -75.8775 290° West 291 335 14,200 1,500 Climbing New York Center
Tue 01:04:50 PM 39.9356 -75.9878 287° West 311 358 15,600 1,050 Climbing New York Center
Tue 01:05:50 PM 39.9372 -76.0883 271° West 310 357 16,300 800 Climbing New York Center
Tue 01:06:50 PM 39.9386 -76.1992 271° West 310 357 17,200 1,150 Climbing New York Center
Tue 01:07:50 PM 39.9347 -76.3264 268° West 310 357 18,600 950 Climbing New York Center
Tue 01:08:50 PM 39.9358 -76.4347 271° West 320 368 19,100 650 Climbing New York Center
Tue 01:09:50 PM 39.9508 -76.5525 279° West 334 384 19,900 750 Climbing New York Center
Tue 01:10:50 PM 39.9225 -76.6636 252° West 317 365 20,600 800 Climbing New York Center
Tue 01:11:50 PM 39.8756 -76.7681 240° Southwest 317 365 21,500 950 Climbing New York Center
Tue 01:12:50 PM 39.8308 -76.8697 240° Southwest 328 377 22,500 857 Climbing New York Center
Tue 01:14:03 PM 39.7722 -76.9925 238° Southwest 331 381 23,400 636 Climbing Washington Center
Tue 01:15:02 PM 39.7250 -77.0969 240° Southwest 336 387 23,900 550 Climbing Washington Center
Tue 01:16:03 PM 39.6781 -77.2011 240° Southwest 336 387 24,500 639 Climbing Washington Center
Tue 01:17:04 PM 39.6286 -77.3078 239° Southwest 336 387 25,200 655 Climbing Washington Center
Tue 01:18:02 PM 39.5833 -77.4144 241° Southwest 341 392 25,800 555 Climbing Washington Center
Tue 01:19:03 PM 39.5358 -77.5181 239° Southwest 341 392 26,300 500 Climbing Washington Center
Tue 01:20:02 PM 39.4881 -77.6244 240° Southwest 341 392 26,800 500 Climbing Washington Center
Tue 01:21:03 PM 39.4406 -77.7281 239° Southwest 341 392 27,300 595 Climbing Washington Center
Tue 01:22:03 PM 39.3928 -77.8314 239° Southwest 341 392 28,000 347 Climbing Washington Center
Tue 01:23:04 PM 39.3511 -77.9400 244° Southwest 341 392 28,000  Level Washington Center
Tue 01:24:02 PM 39.3072 -78.0458 242° Southwest 341 392 28,000  Level Washington Center
Tue 01:25:03 PM 39.2656 -78.1517 243° Southwest 341 392 28,000  Level Washington Center
Tue 01:26:03 PM 39.2214 -78.2628 243° Southwest 341 392 28,000  Level Washington Center
Tue 01:27:01 PM 39.1772 -78.3736 243° Southwest 346 398 28,000  Level Washington Center
Tue 01:28:02 PM 39.1331 -78.4817 242° Southwest 346 398 28,000  Level Washington Center
Tue 01:29:03 PM 39.0864 -78.5947 242° Southwest 351 404 28,000  Level Washington Center
Tue 01:30:04 PM 39.0397 -78.7078 242° Southwest 356 410 28,000  Level Washington Center
Tue 01:31:04 PM 38.9953 -78.8208 243° Southwest 361 415 28,000  Level Washington Center
Tue 01:32:02 PM 38.9503 -78.9336 243° Southwest 361 415 28,000  Level Washington Center
Tue 01:33:02 PM 38.9036 -79.0433 241° Southwest 361 415 28,000  Level Washington Center
Tue 01:34:03 PM 38.8586 -79.1506 242° Southwest 361 415 28,000  Level Washington Center
Tue 01:35:02 PM 38.8258 -79.2689 250° West 356 410 28,000  Level Washington Center
Tue 01:36:03 PM 38.8033 -79.3903 257° West 351 404 28,000  Level Washington Center
Tue 01:37:04 PM 38.7850 -79.5119 259° West 351 404 28,000  Level Washington Center
Tue 01:38:02 PM 38.7642 -79.6333 258° West 357 411 28,000  Level Washington Center
Tue 01:39:02 PM 38.7411 -79.7625 257° West 347 399 28,000  Level Washington Center
Tue 01:40:02 PM 38.7203 -79.8783 257° West 347 399 28,000  Level Washington Center
Tue 01:40:36 PM 38.7075 -79.9272 251° West 338 389 28,000  Level Indianapolis Center
Tue 01:41:37 PM 38.6861 -80.0425 257° West 337 388 28,000  Level Indianapolis Center
Tue 01:42:39 PM 38.6644 -80.1578 256° West 336 387 28,000  Level Indianapolis Center
Tue 01:43:40 PM 38.6425 -80.2719 256° West 335 386 28,000  Level Indianapolis Center
Tue 01:44:42 PM 38.6175 -80.4108 257° West 335 386 28,000  Level Indianapolis Center
Tue 01:45:43 PM 38.5953 -80.5247 256° West 334 384 28,000  Level Indianapolis Center
Tue 01:46:45 PM 38.5733 -80.6392 256° West 331 381 28,000  Level Indianapolis Center
Tue 01:47:46 PM 38.5508 -80.7531 256° West 331 381 28,000  Level Indianapolis Center
Tue 01:48:48 PM 38.5292 -80.8661 256° West 331 381 28,000  Level Indianapolis Center
Tue 01:49:49 PM 38.5069 -80.9797 256° West 331 381 28,000  Level Indianapolis Center
Tue 01:50:51 PM 38.4853 -81.0922 256° West 330 380 28,000  Level Indianapolis Center
Tue 01:51:52 PM 38.4631 -81.2042 256° West 327 376 28,000 246 Level Indianapolis Center
Tue 01:52:53 PM 38.4417 -81.3161 256° West 324 373 28,500 683 Climbing Indianapolis Center
Tue 01:53:55 PM 38.4117 -81.4189 250° West 311 358 29,400 732 Climbing Indianapolis Center
Tue 01:54:56 PM 38.3775 -81.5142 245° Southwest 297 342 30,000 293 Climbing Indianapolis Center
Tue 01:55:58 PM 38.3403 -81.6108 244° Southwest 298 343 30,000  Level Indianapolis Center
Tue 01:57:00 PM 38.3058 -81.7428 252° West 321 369 30,000  Level Indianapolis Center
Tue 01:58:01 PM 38.2761 -81.8567 252° West 331 381 30,000  Level Indianapolis Center
Tue 01:59:03 PM 38.2461 -81.9719 252° West 335 386 30,000  Level Indianapolis Center
Tue 02:00:04 PM 38.2169 -82.0881 252° West 340 391 30,000  Level Indianapolis Center
Tue 02:01:06 PM 38.1872 -82.2014 252° West 340 391 30,000  Level Indianapolis Center
Tue 02:02:07 PM 38.1564 -82.3150 251° West 340 391 30,000  Level Indianapolis Center
Tue 02:03:09 PM 38.1267 -82.4283 252° West 340 391 30,000  Level Indianapolis Center
Tue 02:04:10 PM 38.0975 -82.5383 251° West 339 390 30,000  Level Indianapolis Center
Tue 02:05:12 PM 38.0625 -82.6692 251° West 338 389 30,000  Level Indianapolis Center
Tue 02:06:14 PM 38.0331 -82.7819 252° West 338 389 30,000  Level Indianapolis Center
Tue 02:07:15 PM 38.0028 -82.8928 251° West 337 388 30,000  Level Indianapolis Center
Tue 02:08:17 PM 37.9722 -83.0028 251° West 336 387 30,000  Level Indianapolis Center
Tue 02:09:18 PM 37.9422 -83.1153 251° West 335 386 30,000  Level Indianapolis Center
Tue 02:10:20 PM 37.9122 -83.2256 251° West 335 386 30,000  Level Indianapolis Center
Tue 02:11:22 PM 37.8767 -83.3561 251° West 335 386 30,000  Level Indianapolis Center
Tue 02:12:23 PM 37.8458 -83.4669 251° West 335 386 30,000  Level Indianapolis Center
Tue 02:13:25 PM 37.8153 -83.5800 251° West 337 388 30,000  Level Indianapolis Center
Tue 02:14:27 PM 37.7839 -83.6928 251° West 338 389 30,000  Level Indianapolis Center
Tue 02:15:28 PM 37.7525 -83.8047 251° West 338 389 30,000 -634 Level Indianapolis Center
Tue 02:16:30 PM 37.7219 -83.9172 251° West 338 389 28,700 -1,645 Descending Indianapolis Center
Tue 02:17:32 PM 37.6836 -84.0492 250° West 339 390 26,600 -1,902 Descending Indianapolis Center
Tue 02:18:33 PM 37.6508 -84.1642 250° West 343 395 24,800 -1,805 Descending Indianapolis Center
Tue 02:19:35 PM 37.6161 -84.2786 249° West 346 398 22,900 -1,887 Descending Indianapolis Center
Tue 02:20:37 PM 37.5850 -84.4011 252° West 364 419 20,900 -2,244 Descending Indianapolis Center
Tue 02:21:38 PM 37.6011 -84.5225 280° West 354 407 18,300 -2,439 Descending Indianapolis Center
Tue 02:22:40 PM 37.6161 -84.6453 279° West 354 407 15,900 -2,371 Descending Indianapolis Center
Tue 02:23:42 PM 37.6297 -84.7603 279° West 341 392 13,400 -2,323 Descending Indianapolis Center
Tue 02:24:44 PM 37.6475 -84.8889 280° West 324 373 11,100 -1,659 Descending Indianapolis Center
Tue 02:25:45 PM 37.6797 -84.9878 292° West 321 369 10,000 -537 Descending Indianapolis Center
Tue 02:26:47 PM 37.7308 -85.0594 312° West 282 325 10,000  Level Indianapolis Center
Tue 02:27:49 PM 37.7811 -85.1283 313° West 269 310 10,000 -341 Level Indianapolis Center
Tue 02:28:50 PM 37.8261 -85.1947 311° West 256 295 9,300 -1,415 Descending Indianapolis Center
Tue 02:29:52 PM 37.8319 -85.2872 275° West 257 296 7,100 -2,081 Descending Indianapolis Center
Tue 02:30:54 PM 37.8447 -85.3758 280° West 256 295 5,000 -1,016 Descending Indianapolis Center
Tue 02:32:55 PM 37.8833 -85.5667 312° West 253 291 4,000 -563 Descending Louisville TRACON
Tue 02:35:10 PM 38.0000 -85.6833 335° Northwest 242 278 2,600 -500 Descending Louisville TRACON
Tue 02:37:00 PM 38.1619 -85.7328 347° North  Level Estimated
Tue 02:37:55 PM 38.1167 -85.7333 347° North 133 153 1,500  Level Louisville TRACON

Login

Don't have an account? Register now (free) for customized features, flight alerts, and more!